sensor_id;sensor_type;location;lat;lon;timestamp;P1;durP1;ratioP1;P2;durP2;ratioP2
75358;SDS011;64046;51.978;5.934;2023-07-31T00:02:19;1.80;;;1.20;;
75358;SDS011;64046;51.978;5.934;2023-07-31T00:04:56;1.60;;;1.20;;
75358;SDS011;64046;51.978;5.934;2023-07-31T00:07:27;2.45;;;1.60;;
75358;SDS011;64046;51.978;5.934;2023-07-31T00:09:58;2.17;;;1.25;;
75358;SDS011;64046;51.978;5.934;2023-07-31T00:12:33;1.83;;;1.40;;
75358;SDS011;64046;51.978;5.934;2023-07-31T00:15:18;2.40;;;1.60;;
75358;SDS011;64046;51.978;5.934;2023-07-31T00:18:03;3.08;;;1.73;;
75358;SDS011;64046;51.978;5.934;2023-07-31T00:20:43;1.60;;;1.33;;
75358;SDS011;64046;51.978;5.934;2023-07-31T00:23:18;2.25;;;1.60;;
75358;SDS011;64046;51.978;5.934;2023-07-31T00:25:56;2.80;;;1.65;;
75358;SDS011;64046;51.978;5.934;2023-07-31T00:28:30;3.05;;;1.60;;
75358;SDS011;64046;51.978;5.934;2023-07-31T00:31:03;2.95;;;1.50;;
75358;SDS011;64046;51.978;5.934;2023-07-31T00:33:34;2.42;;;1.63;;
75358;SDS011;64046;51.978;5.934;2023-07-31T00:36:14;2.25;;;1.80;;
75358;SDS011;64046;51.978;5.934;2023-07-31T00:38:47;2.47;;;1.90;;
75358;SDS011;64046;51.978;5.934;2023-07-31T00:41:21;2.50;;;1.45;;
75358;SDS011;64046;51.978;5.934;2023-07-31T00:43:55;2.00;;;1.60;;
75358;SDS011;64046;51.978;5.934;2023-07-31T00:46:27;3.97;;;1.98;;
75358;SDS011;64046;51.978;5.934;2023-07-31T00:48:58;3.63;;;2.30;;
75358;SDS011;64046;51.978;5.934;2023-07-31T00:51:31;5.78;;;2.30;;
75358;SDS011;64046;51.978;5.934;2023-07-31T00:54:06;7.40;;;2.80;;
75358;SDS011;64046;51.978;5.934;2023-07-31T00:56:39;7.00;;;3.25;;
75358;SDS011;64046;51.978;5.934;2023-07-31T00:59:10;8.23;;;3.55;;
75358;SDS011;64046;51.978;5.934;2023-07-31T01:01:44;8.32;;;3.63;;
75358;SDS011;64046;51.978;5.934;2023-07-31T01:04:17;8.40;;;3.58;;
75358;SDS011;64046;51.978;5.934;2023-07-31T01:06:48;17.90;;;5.18;;
75358;SDS011;64046;51.978;5.934;2023-07-31T01:09:33;15.80;;;5.28;;
75358;SDS011;64046;51.978;5.934;2023-07-31T01:12:16;16.45;;;6.18;;
75358;SDS011;64046;51.978;5.934;2023-07-31T01:15:01;22.88;;;8.23;;
75358;SDS011;64046;51.978;5.934;2023-07-31T01:17:44;18.38;;;6.68;;
75358;SDS011;64046;51.978;5.934;2023-07-31T01:20:17;20.08;;;6.95;;
75358;SDS011;64046;51.978;5.934;2023-07-31T01:23:04;22.80;;;7.15;;
75358;SDS011;64046;51.978;5.934;2023-07-31T01:26:06;27.33;;;7.90;;
75358;SDS011;64046;51.978;5.934;2023-07-31T01:28:50;21.85;;;7.13;;
75358;SDS011;64046;51.978;5.934;2023-07-31T01:31:26;18.98;;;6.60;;
75358;SDS011;64046;51.978;5.934;2023-07-31T01:34:06;15.68;;;6.85;;
75358;SDS011;64046;51.978;5.934;2023-07-31T01:36:46;22.90;;;7.88;;
75358;SDS011;64046;51.978;5.934;2023-07-31T01:39:16;22.27;;;8.02;;
75358;SDS011;64046;51.978;5.934;2023-07-31T01:41:59;16.13;;;6.15;;
75358;SDS011;64046;51.978;5.934;2023-07-31T01:44:34;26.85;;;6.85;;
75358;SDS011;64046;51.978;5.934;2023-07-31T01:47:08;13.68;;;6.20;;
75358;SDS011;64046;51.978;5.934;2023-07-31T01:49:45;13.63;;;5.85;;
75358;SDS011;64046;51.978;5.934;2023-07-31T01:52:33;22.73;;;6.70;;
75358;SDS011;64046;51.978;5.934;2023-07-31T01:55:05;17.42;;;6.90;;
75358;SDS011;64046;51.978;5.934;2023-07-31T01:57:40;14.90;;;6.03;;
75358;SDS011;64046;51.978;5.934;2023-07-31T02:00:12;21.00;;;6.82;;
75358;SDS011;64046;51.978;5.934;2023-07-31T02:02:45;16.17;;;6.80;;
75358;SDS011;64046;51.978;5.934;2023-07-31T02:05:20;17.67;;;6.63;;
75358;SDS011;64046;51.978;5.934;2023-07-31T02:07:50;19.98;;;6.00;;
75358;SDS011;64046;51.978;5.934;2023-07-31T02:10:35;15.82;;;5.50;;
75358;SDS011;64046;51.978;5.934;2023-07-31T02:13:14;19.88;;;7.07;;
75358;SDS011;64046;51.978;5.934;2023-07-31T02:15:50;16.27;;;6.88;;
75358;SDS011;64046;51.978;5.934;2023-07-31T02:18:29;23.52;;;6.30;;
75358;SDS011;64046;51.978;5.934;2023-07-31T02:21:02;20.02;;;6.50;;
75358;SDS011;64046;51.978;5.934;2023-07-31T02:23:34;19.98;;;6.35;;
75358;SDS011;64046;51.978;5.934;2023-07-31T02:26:06;19.67;;;6.15;;
75358;SDS011;64046;51.978;5.934;2023-07-31T02:28:41;20.23;;;7.00;;
75358;SDS011;64046;51.978;5.934;2023-07-31T02:31:12;20.13;;;6.38;;
75358;SDS011;64046;51.978;5.934;2023-07-31T02:33:47;19.95;;;7.07;;
75358;SDS011;64046;51.978;5.934;2023-07-31T02:36:17;12.48;;;5.60;;
75358;SDS011;64046;51.978;5.934;2023-07-31T02:38:48;20.63;;;6.75;;
75358;SDS011;64046;51.978;5.934;2023-07-31T02:41:18;19.17;;;7.00;;
75358;SDS011;64046;51.978;5.934;2023-07-31T02:43:51;13.45;;;5.97;;
75358;SDS011;64046;51.978;5.934;2023-07-31T02:46:22;19.65;;;6.15;;
75358;SDS011;64046;51.978;5.934;2023-07-31T02:48:56;22.95;;;7.55;;
75358;SDS011;64046;51.978;5.934;2023-07-31T02:51:28;18.20;;;5.55;;
75358;SDS011;64046;51.978;5.934;2023-07-31T02:54:00;21.40;;;7.35;;
75358;SDS011;64046;51.978;5.934;2023-07-31T02:56:32;15.07;;;5.22;;
75358;SDS011;64046;51.978;5.934;2023-07-31T02:59:09;20.60;;;6.30;;
75358;SDS011;64046;51.978;5.934;2023-07-31T03:01:41;14.13;;;4.97;;
75358;SDS011;64046;51.978;5.934;2023-07-31T03:04:12;13.30;;;5.15;;
75358;SDS011;64046;51.978;5.934;2023-07-31T03:06:42;24.30;;;6.05;;
75358;SDS011;64046;51.978;5.934;2023-07-31T03:09:13;24.30;;;5.80;;
75358;SDS011;64046;51.978;5.934;2023-07-31T03:11:43;16.02;;;6.35;;
75358;SDS011;64046;51.978;5.934;2023-07-31T03:14:18;13.80;;;5.30;;
75358;SDS011;64046;51.978;5.934;2023-07-31T03:16:48;14.48;;;5.80;;
75358;SDS011;64046;51.978;5.934;2023-07-31T03:19:20;12.57;;;5.40;;
75358;SDS011;64046;51.978;5.934;2023-07-31T03:21:50;19.58;;;6.35;;
75358;SDS011;64046;51.978;5.934;2023-07-31T03:24:19;19.30;;;6.68;;
75358;SDS011;64046;51.978;5.934;2023-07-31T03:26:54;18.45;;;6.32;;
75358;SDS011;64046;51.978;5.934;2023-07-31T03:29:26;17.95;;;6.82;;
75358;SDS011;64046;51.978;5.934;2023-07-31T03:31:57;23.60;;;7.10;;
75358;SDS011;64046;51.978;5.934;2023-07-31T03:34:31;20.67;;;6.80;;
75358;SDS011;64046;51.978;5.934;2023-07-31T03:37:05;11.30;;;5.20;;
75358;SDS011;64046;51.978;5.934;2023-07-31T03:39:38;14.32;;;5.45;;
75358;SDS011;64046;51.978;5.934;2023-07-31T03:42:10;17.52;;;5.97;;
75358;SDS011;64046;51.978;5.934;2023-07-31T03:44:46;13.57;;;5.78;;
75358;SDS011;64046;51.978;5.934;2023-07-31T03:47:22;15.65;;;5.78;;
75358;SDS011;64046;51.978;5.934;2023-07-31T03:49:53;19.23;;;6.35;;
75358;SDS011;64046;51.978;5.934;2023-07-31T03:52:23;20.35;;;5.55;;
75358;SDS011;64046;51.978;5.934;2023-07-31T03:54:53;16.33;;;5.22;;
75358;SDS011;64046;51.978;5.934;2023-07-31T03:57:26;18.45;;;6.22;;
75358;SDS011;64046;51.978;5.934;2023-07-31T04:00:02;17.48;;;5.25;;
75358;SDS011;64046;51.978;5.934;2023-07-31T04:02:40;15.95;;;5.65;;
75358;SDS011;64046;51.978;5.934;2023-07-31T04:05:10;17.30;;;5.93;;
75358;SDS011;64046;51.978;5.934;2023-07-31T04:07:41;15.60;;;5.50;;
75358;SDS011;64046;51.978;5.934;2023-07-31T04:10:12;14.05;;;5.30;;
75358;SDS011;64046;51.978;5.934;2023-07-31T04:12:44;17.77;;;6.20;;
75358;SDS011;64046;51.978;5.934;2023-07-31T04:15:23;16.45;;;5.47;;
75358;SDS011;64046;51.978;5.934;2023-07-31T04:17:56;13.90;;;5.10;;
75358;SDS011;64046;51.978;5.934;2023-07-31T04:20:28;13.65;;;5.85;;
75358;SDS011;64046;51.978;5.934;2023-07-31T04:22:57;12.55;;;4.93;;
75358;SDS011;64046;51.978;5.934;2023-07-31T04:25:28;16.50;;;6.32;;
75358;SDS011;64046;51.978;5.934;2023-07-31T04:28:03;13.38;;;5.50;;
75358;SDS011;64046;51.978;5.934;2023-07-31T04:30:36;12.90;;;5.65;;
75358;SDS011;64046;51.978;5.934;2023-07-31T04:33:06;13.95;;;5.50;;
75358;SDS011;64046;51.978;5.934;2023-07-31T04:35:40;12.10;;;5.00;;
75358;SDS011;64046;51.978;5.934;2023-07-31T04:38:20;18.08;;;5.72;;
75358;SDS011;64046;51.978;5.934;2023-07-31T04:40:50;16.95;;;5.53;;
75358;SDS011;64046;51.978;5.934;2023-07-31T04:43:28;20.23;;;5.32;;
75358;SDS011;64046;51.978;5.934;2023-07-31T04:46:11;17.63;;;5.63;;
75358;SDS011;64046;51.978;5.934;2023-07-31T04:48:42;15.88;;;5.25;;
75358;SDS011;64046;51.978;5.934;2023-07-31T04:51:13;18.33;;;6.22;;
75358;SDS011;64046;51.978;5.934;2023-07-31T04:53:44;14.77;;;4.75;;
75358;SDS011;64046;51.978;5.934;2023-07-31T04:56:17;15.30;;;5.38;;
75358;SDS011;64046;51.978;5.934;2023-07-31T04:58:50;19.58;;;6.40;;
75358;SDS011;64046;51.978;5.934;2023-07-31T05:01:34;12.80;;;5.47;;
75358;SDS011;64046;51.978;5.934;2023-07-31T05:04:03;16.17;;;5.40;;
75358;SDS011;64046;51.978;5.934;2023-07-31T05:06:35;13.13;;;4.55;;
75358;SDS011;64046;51.978;5.934;2023-07-31T05:09:08;14.90;;;5.10;;
75358;SDS011;64046;51.978;5.934;2023-07-31T05:11:42;15.38;;;4.90;;
75358;SDS011;64046;51.978;5.934;2023-07-31T05:14:11;16.52;;;5.10;;
75358;SDS011;64046;51.978;5.934;2023-07-31T05:16:50;13.65;;;4.88;;
75358;SDS011;64046;51.978;5.934;2023-07-31T05:19:24;16.83;;;4.93;;
75358;SDS011;64046;51.978;5.934;2023-07-31T05:21:55;16.58;;;5.45;;
75358;SDS011;64046;51.978;5.934;2023-07-31T05:24:25;11.95;;;4.82;;
75358;SDS011;64046;51.978;5.934;2023-07-31T05:27:02;11.73;;;4.40;;
75358;SDS011;64046;51.978;5.934;2023-07-31T05:29:32;15.23;;;5.07;;
75358;SDS011;64046;51.978;5.934;2023-07-31T05:32:05;16.38;;;4.65;;
75358;SDS011;64046;51.978;5.934;2023-07-31T05:34:37;18.05;;;5.40;;
75358;SDS011;64046;51.978;5.934;2023-07-31T05:37:13;13.23;;;5.07;;
75358;SDS011;64046;51.978;5.934;2023-07-31T05:39:44;15.05;;;5.18;;
75358;SDS011;64046;51.978;5.934;2023-07-31T05:42:19;12.00;;;4.75;;
75358;SDS011;64046;51.978;5.934;2023-07-31T05:44:51;13.27;;;5.10;;
75358;SDS011;64046;51.978;5.934;2023-07-31T05:47:24;13.75;;;4.78;;
75358;SDS011;64046;51.978;5.934;2023-07-31T05:49:57;13.52;;;5.28;;
75358;SDS011;64046;51.978;5.934;2023-07-31T05:52:34;15.32;;;4.85;;
75358;SDS011;64046;51.978;5.934;2023-07-31T05:55:05;18.42;;;5.38;;
75358;SDS011;64046;51.978;5.934;2023-07-31T05:57:37;16.30;;;5.32;;
75358;SDS011;64046;51.978;5.934;2023-07-31T06:00:14;14.15;;;4.43;;
75358;SDS011;64046;51.978;5.934;2023-07-31T06:02:47;15.38;;;5.32;;
75358;SDS011;64046;51.978;5.934;2023-07-31T06:05:19;15.75;;;5.60;;
75358;SDS011;64046;51.978;5.934;2023-07-31T06:07:48;9.27;;;4.13;;
75358;SDS011;64046;51.978;5.934;2023-07-31T06:10:20;11.07;;;4.63;;
75358;SDS011;64046;51.978;5.934;2023-07-31T06:12:52;10.85;;;4.60;;
75358;SDS011;64046;51.978;5.934;2023-07-31T06:15:25;12.13;;;4.50;;
75358;SDS011;64046;51.978;5.934;2023-07-31T06:17:58;12.10;;;4.22;;
75358;SDS011;64046;51.978;5.934;2023-07-31T06:20:30;9.77;;;4.18;;
75358;SDS011;64046;51.978;5.934;2023-07-31T06:23:00;9.25;;;4.07;;
75358;SDS011;64046;51.978;5.934;2023-07-31T06:25:32;9.27;;;4.07;;
75358;SDS011;64046;51.978;5.934;2023-07-31T06:28:02;8.40;;;4.25;;
75358;SDS011;64046;51.978;5.934;2023-07-31T06:33:21;11.20;;;4.72;;
75358;SDS011;64046;51.978;5.934;2023-07-31T06:35:51;10.00;;;4.10;;
75358;SDS011;64046;51.978;5.934;2023-07-31T06:38:24;10.30;;;3.35;;
75358;SDS011;64046;51.978;5.934;2023-07-31T06:40:57;10.23;;;4.40;;
75358;SDS011;64046;51.978;5.934;2023-07-31T06:43:30;13.05;;;4.65;;
75358;SDS011;64046;51.978;5.934;2023-07-31T06:46:04;6.82;;;3.00;;
75358;SDS011;64046;51.978;5.934;2023-07-31T06:48:43;10.15;;;3.85;;
75358;SDS011;64046;51.978;5.934;2023-07-31T06:51:17;8.70;;;4.05;;
75358;SDS011;64046;51.978;5.934;2023-07-31T06:53:48;6.63;;;3.10;;
75358;SDS011;64046;51.978;5.934;2023-07-31T06:56:18;7.47;;;3.40;;
75358;SDS011;64046;51.978;5.934;2023-07-31T06:58:50;7.88;;;3.10;;
75358;SDS011;64046;51.978;5.934;2023-07-31T07:01:25;10.30;;;4.65;;
75358;SDS011;64046;51.978;5.934;2023-07-31T07:03:58;6.35;;;2.63;;
75358;SDS011;64046;51.978;5.934;2023-07-31T07:06:33;6.30;;;2.38;;
75358;SDS011;64046;51.978;5.934;2023-07-31T07:09:06;6.55;;;2.63;;
75358;SDS011;64046;51.978;5.934;2023-07-31T07:11:43;5.65;;;2.63;;
75358;SDS011;64046;51.978;5.934;2023-07-31T07:14:22;5.35;;;2.35;;
75358;SDS011;64046;51.978;5.934;2023-07-31T07:16:57;4.97;;;2.45;;
75358;SDS011;64046;51.978;5.934;2023-07-31T07:19:29;4.63;;;2.22;;
75358;SDS011;64046;51.978;5.934;2023-07-31T07:22:00;5.10;;;2.25;;
75358;SDS011;64046;51.978;5.934;2023-07-31T07:24:29;3.80;;;2.00;;
75358;SDS011;64046;51.978;5.934;2023-07-31T07:27:03;2.85;;;1.70;;
75358;SDS011;64046;51.978;5.934;2023-07-31T07:29:37;3.38;;;1.70;;
75358;SDS011;64046;51.978;5.934;2023-07-31T07:32:12;2.50;;;1.60;;
75358;SDS011;64046;51.978;5.934;2023-07-31T07:34:47;1.88;;;1.58;;
75358;SDS011;64046;51.978;5.934;2023-07-31T07:37:18;2.92;;;1.40;;
75358;SDS011;64046;51.978;5.934;2023-07-31T07:39:48;2.55;;;1.60;;
75358;SDS011;64046;51.978;5.934;2023-07-31T07:42:17;3.55;;;1.67;;
75358;SDS011;64046;51.978;5.934;2023-07-31T07:44:52;2.20;;;1.50;;
75358;SDS011;64046;51.978;5.934;2023-07-31T07:47:23;2.03;;;1.25;;
75358;SDS011;64046;51.978;5.934;2023-07-31T07:49:57;2.17;;;1.38;;
75358;SDS011;64046;51.978;5.934;2023-07-31T07:52:30;2.85;;;1.13;;
75358;SDS011;64046;51.978;5.934;2023-07-31T07:55:01;2.38;;;1.23;;
75358;SDS011;64046;51.978;5.934;2023-07-31T07:57:31;3.22;;;1.35;;
75358;SDS011;64046;51.978;5.934;2023-07-31T07:59:59;2.60;;;1.15;;
75358;SDS011;64046;51.978;5.934;2023-07-31T08:02:40;2.83;;;1.42;;
75358;SDS011;64046;51.978;5.934;2023-07-31T08:05:11;1.58;;;1.17;;
75358;SDS011;64046;51.978;5.934;2023-07-31T08:07:50;1.70;;;1.30;;
75358;SDS011;64046;51.978;5.934;2023-07-31T08:10:20;2.85;;;1.55;;
75358;SDS011;64046;51.978;5.934;2023-07-31T08:12:50;3.40;;;1.33;;
75358;SDS011;64046;51.978;5.934;2023-07-31T08:15:21;2.08;;;1.27;;
75358;SDS011;64046;51.978;5.934;2023-07-31T08:17:54;4.00;;;1.75;;
75358;SDS011;64046;51.978;5.934;2023-07-31T08:20:35;2.08;;;1.40;;
75358;SDS011;64046;51.978;5.934;2023-07-31T08:23:08;2.20;;;1.40;;
75358;SDS011;64046;51.978;5.934;2023-07-31T08:25:39;2.13;;;1.27;;
75358;SDS011;64046;51.978;5.934;2023-07-31T08:28:16;2.28;;;1.98;;
75358;SDS011;64046;51.978;5.934;2023-07-31T08:30:47;2.97;;;1.95;;
75358;SDS011;64046;51.978;5.934;2023-07-31T08:33:19;4.05;;;2.13;;
75358;SDS011;64046;51.978;5.934;2023-07-31T08:35:53;2.95;;;1.77;;
75358;SDS011;64046;51.978;5.934;2023-07-31T08:38:38;2.45;;;1.70;;
75358;SDS011;64046;51.978;5.934;2023-07-31T08:41:10;3.67;;;2.17;;
75358;SDS011;64046;51.978;5.934;2023-07-31T08:43:41;2.53;;;1.75;;
75358;SDS011;64046;51.978;5.934;2023-07-31T08:46:13;4.00;;;1.90;;
75358;SDS011;64046;51.978;5.934;2023-07-31T08:48:43;6.30;;;2.00;;
75358;SDS011;64046;51.978;5.934;2023-07-31T08:51:17;2.70;;;1.70;;
75358;SDS011;64046;51.978;5.934;2023-07-31T08:53:47;1.88;;;1.52;;
75358;SDS011;64046;51.978;5.934;2023-07-31T08:56:23;2.83;;;2.10;;
75358;SDS011;64046;51.978;5.934;2023-07-31T08:58:54;3.70;;;2.05;;
75358;SDS011;64046;51.978;5.934;2023-07-31T09:01:29;2.60;;;1.70;;
75358;SDS011;64046;51.978;5.934;2023-07-31T09:04:04;2.50;;;2.10;;
75358;SDS011;64046;51.978;5.934;2023-07-31T09:06:41;3.78;;;2.40;;
75358;SDS011;64046;51.978;5.934;2023-07-31T09:09:16;3.30;;;2.38;;
75358;SDS011;64046;51.978;5.934;2023-07-31T09:11:55;4.40;;;2.30;;
75358;SDS011;64046;51.978;5.934;2023-07-31T09:14:26;3.40;;;2.35;;
75358;SDS011;64046;51.978;5.934;2023-07-31T09:16:58;5.50;;;2.63;;
75358;SDS011;64046;51.978;5.934;2023-07-31T09:19:32;3.08;;;1.98;;
75358;SDS011;64046;51.978;5.934;2023-07-31T09:22:08;2.63;;;1.90;;
75358;SDS011;64046;51.978;5.934;2023-07-31T09:24:41;5.25;;;2.58;;
75358;SDS011;64046;51.978;5.934;2023-07-31T09:27:10;4.50;;;2.63;;
75358;SDS011;64046;51.978;5.934;2023-07-31T09:29:43;2.85;;;2.45;;
75358;SDS011;64046;51.978;5.934;2023-07-31T09:32:15;3.30;;;2.05;;
75358;SDS011;64046;51.978;5.934;2023-07-31T09:34:46;4.10;;;2.38;;
75358;SDS011;64046;51.978;5.934;2023-07-31T09:37:26;4.45;;;3.00;;
75358;SDS011;64046;51.978;5.934;2023-07-31T09:39:58;5.10;;;2.55;;
75358;SDS011;64046;51.978;5.934;2023-07-31T09:42:30;5.97;;;3.38;;
75358;SDS011;64046;51.978;5.934;2023-07-31T09:45:08;6.65;;;3.50;;
75358;SDS011;64046;51.978;5.934;2023-07-31T09:47:39;3.90;;;2.90;;
75358;SDS011;64046;51.978;5.934;2023-07-31T09:50:15;3.45;;;2.92;;
75358;SDS011;64046;51.978;5.934;2023-07-31T09:52:47;4.88;;;3.35;;
75358;SDS011;64046;51.978;5.934;2023-07-31T09:55:21;4.80;;;3.40;;
75358;SDS011;64046;51.978;5.934;2023-07-31T09:57:52;5.10;;;3.70;;
75358;SDS011;64046;51.978;5.934;2023-07-31T10:00:27;5.88;;;3.60;;
75358;SDS011;64046;51.978;5.934;2023-07-31T10:03:07;6.22;;;3.85;;
75358;SDS011;64046;51.978;5.934;2023-07-31T10:05:42;5.07;;;3.35;;
75358;SDS011;64046;51.978;5.934;2023-07-31T10:08:20;5.68;;;3.78;;
75358;SDS011;64046;51.978;5.934;2023-07-31T10:10:55;6.32;;;4.05;;
75358;SDS011;64046;51.978;5.934;2023-07-31T10:13:29;6.10;;;3.80;;
75358;SDS011;64046;51.978;5.934;2023-07-31T10:16:09;6.38;;;3.75;;
75358;SDS011;64046;51.978;5.934;2023-07-31T10:18:43;6.85;;;4.30;;
75358;SDS011;64046;51.978;5.934;2023-07-31T10:21:14;6.00;;;4.03;;
75358;SDS011;64046;51.978;5.934;2023-07-31T10:23:50;6.55;;;5.00;;
75358;SDS011;64046;51.978;5.934;2023-07-31T10:26:20;7.25;;;5.07;;
75358;SDS011;64046;51.978;5.934;2023-07-31T10:28:58;12.48;;;6.05;;
75358;SDS011;64046;51.978;5.934;2023-07-31T10:31:34;9.20;;;5.57;;
75358;SDS011;64046;51.978;5.934;2023-07-31T10:34:05;7.30;;;5.00;;
75358;SDS011;64046;51.978;5.934;2023-07-31T10:36:35;7.93;;;4.68;;
75358;SDS011;64046;51.978;5.934;2023-07-31T10:39:34;6.53;;;4.47;;
75358;SDS011;64046;51.978;5.934;2023-07-31T10:42:10;7.78;;;5.32;;
75358;SDS011;64046;51.978;5.934;2023-07-31T10:44:49;8.82;;;5.05;;
75358;SDS011;64046;51.978;5.934;2023-07-31T10:47:19;9.63;;;4.82;;
75358;SDS011;64046;51.978;5.934;2023-07-31T10:49:52;8.60;;;5.20;;
75358;SDS011;64046;51.978;5.934;2023-07-31T10:52:43;7.50;;;4.57;;
75358;SDS011;64046;51.978;5.934;2023-07-31T10:55:24;8.55;;;4.45;;
75358;SDS011;64046;51.978;5.934;2023-07-31T10:58:07;7.28;;;4.68;;
75358;SDS011;64046;51.978;5.934;2023-07-31T11:00:39;9.18;;;5.18;;
75358;SDS011;64046;51.978;5.934;2023-07-31T11:03:13;7.28;;;4.53;;
75358;SDS011;64046;51.978;5.934;2023-07-31T11:05:49;7.53;;;4.97;;
75358;SDS011;64046;51.978;5.934;2023-07-31T11:08:21;9.95;;;5.97;;
75358;SDS011;64046;51.978;5.934;2023-07-31T11:13:42;5.85;;;4.60;;
75358;SDS011;64046;51.978;5.934;2023-07-31T11:16:17;9.88;;;4.47;;
75358;SDS011;64046;51.978;5.934;2023-07-31T11:18:50;7.57;;;5.15;;
75358;SDS011;64046;51.978;5.934;2023-07-31T11:21:23;10.50;;;5.07;;
75358;SDS011;64046;51.978;5.934;2023-07-31T11:23:56;6.65;;;4.18;;
75358;SDS011;64046;51.978;5.934;2023-07-31T11:26:36;8.60;;;4.65;;
75358;SDS011;64046;51.978;5.934;2023-07-31T11:29:16;7.63;;;5.05;;
75358;SDS011;64046;51.978;5.934;2023-07-31T11:31:47;7.72;;;4.60;;
75358;SDS011;64046;51.978;5.934;2023-07-31T11:34:19;10.32;;;5.55;;
75358;SDS011;64046;51.978;5.934;2023-07-31T11:36:52;9.35;;;5.13;;
75358;SDS011;64046;51.978;5.934;2023-07-31T11:39:28;6.68;;;4.35;;
75358;SDS011;64046;51.978;5.934;2023-07-31T11:42:01;9.85;;;5.20;;
75358;SDS011;64046;51.978;5.934;2023-07-31T11:44:41;7.38;;;4.65;;
75358;SDS011;64046;51.978;5.934;2023-07-31T11:47:15;4.93;;;3.70;;
75358;SDS011;64046;51.978;5.934;2023-07-31T11:49:46;6.95;;;4.47;;
75358;SDS011;64046;51.978;5.934;2023-07-31T11:52:17;6.45;;;4.20;;
75358;SDS011;64046;51.978;5.934;2023-07-31T11:54:54;7.68;;;4.15;;
75358;SDS011;64046;51.978;5.934;2023-07-31T11:57:40;8.18;;;4.47;;
75358;SDS011;64046;51.978;5.934;2023-07-31T12:00:16;6.13;;;3.65;;
75358;SDS011;64046;51.978;5.934;2023-07-31T12:02:47;6.57;;;4.40;;
75358;SDS011;64046;51.978;5.934;2023-07-31T12:05:23;5.93;;;3.80;;
75358;SDS011;64046;51.978;5.934;2023-07-31T12:07:54;5.85;;;3.75;;
75358;SDS011;64046;51.978;5.934;2023-07-31T12:10:29;5.57;;;3.65;;
75358;SDS011;64046;51.978;5.934;2023-07-31T12:13:05;7.63;;;3.58;;
75358;SDS011;64046;51.978;5.934;2023-07-31T12:15:40;6.22;;;3.42;;
75358;SDS011;64046;51.978;5.934;2023-07-31T12:18:14;5.80;;;3.80;;
75358;SDS011;64046;51.978;5.934;2023-07-31T12:20:48;6.07;;;3.50;;
75358;SDS011;64046;51.978;5.934;2023-07-31T12:23:23;4.85;;;2.83;;
75358;SDS011;64046;51.978;5.934;2023-07-31T12:26:00;6.65;;;3.55;;
75358;SDS011;64046;51.978;5.934;2023-07-31T12:28:37;4.43;;;3.33;;
75358;SDS011;64046;51.978;5.934;2023-07-31T12:31:15;6.93;;;3.60;;
75358;SDS011;64046;51.978;5.934;2023-07-31T12:33:49;5.38;;;3.13;;
75358;SDS011;64046;51.978;5.934;2023-07-31T12:36:20;5.90;;;3.72;;
75358;SDS011;64046;51.978;5.934;2023-07-31T12:38:54;10.32;;;3.88;;
75358;SDS011;64046;51.978;5.934;2023-07-31T12:41:26;4.85;;;3.50;;
75358;SDS011;64046;51.978;5.934;2023-07-31T12:44:00;6.28;;;3.90;;
75358;SDS011;64046;51.978;5.934;2023-07-31T12:46:34;6.00;;;4.40;;
75358;SDS011;64046;51.978;5.934;2023-07-31T12:49:07;7.90;;;4.45;;
75358;SDS011;64046;51.978;5.934;2023-07-31T12:51:40;8.10;;;4.63;;
75358;SDS011;64046;51.978;5.934;2023-07-31T12:54:12;8.00;;;4.47;;
75358;SDS011;64046;51.978;5.934;2023-07-31T12:56:43;7.20;;;4.10;;
75358;SDS011;64046;51.978;5.934;2023-07-31T12:59:19;5.78;;;3.72;;
75358;SDS011;64046;51.978;5.934;2023-07-31T13:01:49;8.27;;;5.05;;
75358;SDS011;64046;51.978;5.934;2023-07-31T13:04:26;7.57;;;4.63;;
75358;SDS011;64046;51.978;5.934;2023-07-31T13:06:56;7.38;;;4.45;;
75358;SDS011;64046;51.978;5.934;2023-07-31T13:09:28;8.95;;;4.78;;
75358;SDS011;64046;51.978;5.934;2023-07-31T13:12:10;7.10;;;4.05;;
75358;SDS011;64046;51.978;5.934;2023-07-31T13:14:51;7.28;;;5.03;;
75358;SDS011;64046;51.978;5.934;2023-07-31T13:17:21;7.10;;;4.18;;
75358;SDS011;64046;51.978;5.934;2023-07-31T13:19:55;9.18;;;5.13;;
75358;SDS011;64046;51.978;5.934;2023-07-31T13:22:29;7.25;;;5.22;;
75358;SDS011;64046;51.978;5.934;2023-07-31T13:25:05;6.28;;;4.57;;
75358;SDS011;64046;51.978;5.934;2023-07-31T13:27:40;6.78;;;4.63;;
75358;SDS011;64046;51.978;5.934;2023-07-31T13:30:14;7.85;;;4.20;;
75358;SDS011;64046;51.978;5.934;2023-07-31T13:32:46;7.47;;;4.07;;
75358;SDS011;64046;51.978;5.934;2023-07-31T13:35:21;7.80;;;5.13;;
75358;SDS011;64046;51.978;5.934;2023-07-31T13:37:52;6.20;;;4.38;;
75358;SDS011;64046;51.978;5.934;2023-07-31T13:40:22;4.75;;;3.67;;
75358;SDS011;64046;51.978;5.934;2023-07-31T13:42:54;8.20;;;3.80;;
75358;SDS011;64046;51.978;5.934;2023-07-31T13:48:11;5.45;;;3.88;;
75358;SDS011;64046;51.978;5.934;2023-07-31T13:50:43;7.05;;;4.20;;
75358;SDS011;64046;51.978;5.934;2023-07-31T13:53:20;6.68;;;3.72;;
75358;SDS011;64046;51.978;5.934;2023-07-31T13:55:54;6.07;;;3.58;;
75358;SDS011;64046;51.978;5.934;2023-07-31T13:58:31;8.70;;;4.18;;
75358;SDS011;64046;51.978;5.934;2023-07-31T14:01:07;6.07;;;3.65;;
75358;SDS011;64046;51.978;5.934;2023-07-31T14:03:47;6.00;;;3.90;;
75358;SDS011;64046;51.978;5.934;2023-07-31T14:06:16;5.22;;;3.70;;
75358;SDS011;64046;51.978;5.934;2023-07-31T14:08:46;8.73;;;4.22;;
75358;SDS011;64046;51.978;5.934;2023-07-31T14:11:19;7.07;;;4.75;;
75358;SDS011;64046;51.978;5.934;2023-07-31T14:13:51;7.60;;;4.07;;
75358;SDS011;64046;51.978;5.934;2023-07-31T14:16:27;8.40;;;3.85;;
75358;SDS011;64046;51.978;5.934;2023-07-31T14:19:00;7.43;;;4.18;;
75358;SDS011;64046;51.978;5.934;2023-07-31T14:21:31;6.95;;;4.10;;
75358;SDS011;64046;51.978;5.934;2023-07-31T14:24:00;8.07;;;4.22;;
75358;SDS011;64046;51.978;5.934;2023-07-31T14:26:36;9.07;;;4.18;;
75358;SDS011;64046;51.978;5.934;2023-07-31T14:29:10;7.18;;;5.05;;
75358;SDS011;64046;51.978;5.934;2023-07-31T14:31:47;7.28;;;4.45;;
75358;SDS011;64046;51.978;5.934;2023-07-31T14:34:25;8.13;;;4.35;;
75358;SDS011;64046;51.978;5.934;2023-07-31T14:36:55;7.78;;;4.70;;
75358;SDS011;64046;51.978;5.934;2023-07-31T14:39:27;8.13;;;5.03;;
75358;SDS011;64046;51.978;5.934;2023-07-31T14:41:59;9.35;;;4.78;;
75358;SDS011;64046;51.978;5.934;2023-07-31T14:44:29;7.85;;;4.50;;
75358;SDS011;64046;51.978;5.934;2023-07-31T14:47:06;7.97;;;4.63;;
75358;SDS011;64046;51.978;5.934;2023-07-31T14:49:39;7.05;;;3.90;;
75358;SDS011;64046;51.978;5.934;2023-07-31T14:52:09;5.25;;;3.53;;
75358;SDS011;64046;51.978;5.934;2023-07-31T14:54:43;7.25;;;4.13;;
75358;SDS011;64046;51.978;5.934;2023-07-31T14:57:15;7.70;;;3.60;;
75358;SDS011;64046;51.978;5.934;2023-07-31T14:59:48;9.07;;;4.22;;
75358;SDS011;64046;51.978;5.934;2023-07-31T15:02:22;11.38;;;4.53;;
75358;SDS011;64046;51.978;5.934;2023-07-31T15:04:55;6.80;;;4.35;;
75358;SDS011;64046;51.978;5.934;2023-07-31T15:07:24;8.65;;;4.90;;
75358;SDS011;64046;51.978;5.934;2023-07-31T15:09:55;9.63;;;5.57;;
75358;SDS011;64046;51.978;5.934;2023-07-31T15:12:25;8.27;;;4.63;;
75358;SDS011;64046;51.978;5.934;2023-07-31T15:14:59;9.00;;;5.45;;
75358;SDS011;64046;51.978;5.934;2023-07-31T15:20:16;9.55;;;4.25;;
75358;SDS011;64046;51.978;5.934;2023-07-31T15:22:48;6.85;;;4.50;;
75358;SDS011;64046;51.978;5.934;2023-07-31T15:25:20;7.15;;;4.13;;
75358;SDS011;64046;51.978;5.934;2023-07-31T15:27:49;8.32;;;4.28;;
75358;SDS011;64046;51.978;5.934;2023-07-31T15:30:20;5.88;;;3.78;;
75358;SDS011;64046;51.978;5.934;2023-07-31T15:32:53;9.00;;;4.65;;
75358;SDS011;64046;51.978;5.934;2023-07-31T15:35:28;9.43;;;4.78;;